Time;durP1;ratioP1;P1;durP2;ratioP2;P2;SDS_P1;SDS_P2;PMS_P1;PMS_P2;Temp;Humidity;BMP_temperature;BMP_pressure;BME280_temperature;BME280_humidity;BME280_pressure;Samples;Min_cycle;Max_cycle;Signal;HPM_P1;HPM_P2
2023/08/21 00:01:36;;;;;;;10.65;2.85;;;;;;;-148.15;100.00;61821.78;4968913;28;20023;-90
2023/08/21 00:04:01;;;;;;;5.40;2.70;;;;;;;-148.15;100.00;61821.78;4992686;28;20035;-90
2023/08/21 00:06:27;;;;;;;8.97;2.93;;;;;;;-148.15;100.00;61821.78;4992213;28;20108;-90
2023/08/21 00:08:52;;;;;;;6.43;2.80;;;;;;;-148.15;100.00;61821.78;4991159;28;20026;-90
2023/08/21 00:11:17;;;;;;;6.63;2.83;;;;;;;-148.15;100.00;61821.78;4979130;28;20060;-90
2023/08/21 00:13:44;;;;;;;9.53;2.60;;;;;;;-148.15;100.00;61821.78;4993671;28;20041;-91
2023/08/21 00:16:11;;;;;;;5.97;2.65;;;;;;;-148.15;100.00;61821.78;4984894;28;20057;-90
2023/08/21 00:18:36;;;;;;;6.82;3.00;;;;;;;-148.15;100.00;61821.78;4992344;28;20023;-90
2023/08/21 00:21:01;;;;;;;13.40;3.17;;;;;;;-148.15;100.00;61821.78;5001320;28;20047;-91
2023/08/21 00:23:27;;;;;;;6.67;2.67;;;;;;;-148.15;100.00;61821.78;4973103;28;20074;-91
2023/08/21 00:25:52;;;;;;;15.87;3.07;;;;;;;-148.15;100.00;61821.78;4972679;28;20660;-90
2023/08/21 00:28:17;;;;;;;10.23;3.40;;;;;;;-148.15;100.00;61821.78;4973172;28;20501;-90
2023/08/21 00:30:43;;;;;;;6.57;2.80;;;;;;;-148.15;100.00;61821.78;4987059;28;20038;-91
2023/08/21 00:33:08;;;;;;;9.75;3.17;;;;;;;-148.15;100.00;61821.78;4991768;28;20022;-90
2023/08/21 00:35:33;;;;;;;8.67;2.90;;;;;;;-148.15;100.00;61821.78;4991452;28;20023;-90
2023/08/21 00:37:59;;;;;;;8.80;3.10;;;;;;;-148.15;100.00;61821.78;4974354;28;20026;-91
2023/08/21 00:40:24;;;;;;;6.17;3.00;;;;;;;-148.15;100.00;61821.78;4990452;28;20030;-90
2023/08/21 00:42:49;;;;;;;9.27;3.00;;;;;;;-148.15;100.00;61821.78;4991579;28;20433;-90
2023/08/21 00:45:15;;;;;;;7.60;2.80;;;;;;;-148.15;100.00;61821.78;4987970;28;20748;-90
2023/08/21 00:47:42;;;;;;;6.03;2.90;;;;;;;-148.15;100.00;61821.78;4991287;28;20486;-90
2023/08/21 00:50:08;;;;;;;7.68;2.80;;;;;;;-148.15;100.00;61821.78;4991088;28;20045;-90
2023/08/21 00:52:35;;;;;;;5.85;3.10;;;;;;;-148.15;100.00;61821.78;4992787;28;20039;-91
2023/08/21 00:55:01;;;;;;;4.63;2.70;;;;;;;-148.15;100.00;61821.78;4992969;28;20027;-91
2023/08/21 00:57:27;;;;;;;9.40;3.03;;;;;;;-148.15;100.00;61821.78;4976966;28;20661;-91
2023/08/21 00:59:53;;;;;;;5.35;2.53;;;;;;;-148.15;100.00;61821.78;4979704;28;20032;-89
2023/08/21 01:02:19;;;;;;;5.57;2.70;;;;;;;-148.15;100.00;61821.78;4981356;28;20023;-91
2023/08/21 01:04:44;;;;;;;9.35;2.65;;;;;;;-148.15;100.00;61821.78;4974041;28;20031;-90
2023/08/21 01:07:10;;;;;;;6.40;2.70;;;;;;;-148.15;100.00;61821.78;4991463;28;20044;-90
2023/08/21 01:09:46;;;;;;;11.00;2.80;;;;;;;-148.15;100.00;61821.78;4990018;28;20109;-90
2023/08/21 01:12:53;;;;;;;9.98;3.13;;;;;;;-148.15;100.00;61821.78;4991835;28;20027;-91
2023/08/21 01:15:18;;;;;;;6.63;2.45;;;;;;;-148.15;100.00;61821.78;4963763;28;20041;-90
2023/08/21 01:17:46;;;;;;;8.27;2.63;;;;;;;-148.15;100.00;61821.78;4971118;28;20023;-91
2023/08/21 01:20:11;;;;;;;6.15;3.05;;;;;;;-148.15;100.00;61821.78;4977352;28;20034;-90
2023/08/21 01:22:45;;;;;;;7.43;2.93;;;;;;;-148.15;100.00;61821.78;4989535;28;20540;-90
2023/08/21 01:25:11;;;;;;;7.03;2.65;;;;;;;-148.15;100.00;61821.78;4971284;28;20057;-90
2023/08/21 01:27:36;;;;;;;7.65;2.90;;;;;;;-148.15;100.00;61821.78;4970133;28;20478;-90
2023/08/21 01:30:06;;;;;;;8.63;2.70;;;;;;;-148.15;100.00;61821.78;4975765;28;20038;-90
2023/08/21 01:32:55;;;;;;;7.47;3.22;;;;;;;-148.15;100.00;61821.78;4986194;28;20038;-90
2023/08/21 01:35:22;;;;;;;7.50;2.45;;;;;;;-148.15;100.00;61821.78;4954453;28;20384;-91
2023/08/21 01:37:48;;;;;;;6.97;2.95;;;;;;;-148.15;100.00;61821.78;4986026;28;20093;-90
2023/08/21 01:40:21;;;;;;;7.85;2.63;;;;;;;-148.15;100.00;61821.78;4997371;28;20038;-90
2023/08/21 01:42:46;;;;;;;7.50;2.65;;;;;;;-148.15;100.00;61821.78;4991140;28;20038;-91
2023/08/21 01:45:11;;;;;;;8.10;2.83;;;;;;;-148.15;100.00;61821.78;4990603;28;20026;-90
2023/08/21 01:47:37;;;;;;;5.40;2.90;;;;;;;-148.15;100.00;61821.78;4991627;28;20378;-90
2023/08/21 01:50:02;;;;;;;10.80;3.20;;;;;;;-148.15;100.00;61821.78;4993420;28;20038;-90
2023/08/21 01:52:28;;;;;;;11.52;3.10;;;;;;;-148.15;100.00;61821.78;4994816;28;20035;-91
2023/08/21 01:54:53;;;;;;;7.77;2.83;;;;;;;-148.15;100.00;61821.78;4995112;28;20026;-91
2023/08/21 01:57:19;;;;;;;4.77;2.70;;;;;;;-148.15;100.00;61821.78;4994528;28;20085;-90
2023/08/21 01:59:44;;;;;;;6.57;2.90;;;;;;;-148.15;100.00;61821.78;4992770;28;20034;-90
2023/08/21 02:02:09;;;;;;;5.18;2.90;;;;;;;-148.15;100.00;61821.78;4987210;28;20039;-90
2023/08/21 02:04:35;;;;;;;6.77;3.20;;;;;;;-148.15;100.00;61821.78;4981633;28;20425;-91
2023/08/21 02:07:00;;;;;;;8.07;3.20;;;;;;;-148.15;100.00;61821.78;4993670;28;20033;-91
2023/08/21 02:09:26;;;;;;;7.50;2.97;;;;;;;-148.15;100.00;61821.78;4993469;28;20034;-90
2023/08/21 02:11:51;;;;;;;6.40;2.75;;;;;;;-148.15;100.00;61821.78;4993016;28;20398;-91
2023/08/21 02:14:16;;;;;;;5.90;2.90;;;;;;;-148.15;100.00;61821.78;4993710;28;20470;-91
2023/08/21 02:16:42;;;;;;;7.30;3.17;;;;;;;-148.15;100.00;61821.78;4993234;28;20030;-90
2023/08/21 02:19:07;;;;;;;6.20;3.13;;;;;;;-148.15;100.00;61821.78;4990971;28;20026;-92
2023/08/21 02:21:34;;;;;;;8.57;3.07;;;;;;;-148.15;100.00;61821.78;4982763;28;20026;-90
2023/08/21 02:23:59;;;;;;;7.43;3.40;;;;;;;-148.15;100.00;61821.78;4956774;28;20027;-92
2023/08/21 02:26:25;;;;;;;8.87;3.30;;;;;;;-148.15;100.00;61821.78;4974651;28;20034;-92
2023/08/21 02:28:50;;;;;;;9.10;3.30;;;;;;;-148.15;100.00;61821.78;4974735;28;20031;-91
2023/08/21 02:31:15;;;;;;;9.87;3.20;;;;;;;-148.15;100.00;61821.78;4987113;28;20524;-91
2023/08/21 02:33:40;;;;;;;8.53;3.77;;;;;;;-148.15;100.00;61821.78;4993734;28;20038;-91
2023/08/21 02:36:07;;;;;;;6.57;3.33;;;;;;;-148.15;100.00;61821.78;4991756;28;20489;-91
2023/08/21 02:38:32;;;;;;;7.30;3.42;;;;;;;-148.15;100.00;61821.78;4991868;28;20482;-91
2023/08/21 02:40:58;;;;;;;7.32;3.90;;;;;;;-148.15;100.00;61821.78;4990449;28;20034;-91
2023/08/21 02:43:23;;;;;;;7.50;3.17;;;;;;;-148.15;100.00;61821.78;4991876;28;20132;-90
2023/08/21 02:45:48;;;;;;;6.07;3.60;;;;;;;-148.15;100.00;61821.78;4973927;28;20451;-91
2023/08/21 02:48:14;;;;;;;11.00;3.70;;;;;;;-148.15;100.00;61821.78;4974304;28;20532;-92
2023/08/21 02:50:39;;;;;;;5.53;3.30;;;;;;;-148.15;100.00;61821.78;4997260;28;20053;-90
2023/08/21 02:53:05;;;;;;;5.93;3.55;;;;;;;-148.15;100.00;61821.78;4988805;28;20035;-92
2023/08/21 02:55:30;;;;;;;8.13;3.80;;;;;;;-148.15;100.00;61821.78;4986941;28;20037;-91
2023/08/21 02:57:56;;;;;;;6.80;3.88;;;;;;;-148.15;100.00;61821.78;5002786;28;20069;-91
2023/08/21 03:00:21;;;;;;;5.07;3.77;;;;;;;-148.15;100.00;61821.78;4994771;28;20166;-91
2023/08/21 03:02:47;;;;;;;7.17;3.83;;;;;;;-148.15;100.00;61821.78;4985105;28;20106;-90
2023/08/21 03:05:13;;;;;;;9.70;3.90;;;;;;;-148.15;100.00;61821.78;4973639;28;20110;-91
2023/08/21 03:07:39;;;;;;;9.60;4.40;;;;;;;-148.15;100.00;61821.78;4972832;28;20053;-91
2023/08/21 03:10:05;;;;;;;10.83;4.20;;;;;;;-148.15;100.00;61821.78;4983737;28;20329;-91
2023/08/21 03:12:31;;;;;;;9.35;3.92;;;;;;;-148.15;100.00;61821.78;4983885;28;20587;-90
2023/08/21 03:14:56;;;;;;;9.70;4.23;;;;;;;-148.15;100.00;61821.78;4987928;28;20038;-91
2023/08/21 03:17:21;;;;;;;7.40;3.70;;;;;;;-148.15;100.00;61821.78;4980544;28;20030;-90
2023/08/21 03:19:47;;;;;;;7.63;3.50;;;;;;;-148.15;100.00;61821.78;4972679;28;20030;-90
2023/08/21 03:22:12;;;;;;;6.23;4.00;;;;;;;-148.15;100.00;61821.78;4988073;28;20109;-90
2023/08/21 03:24:37;;;;;;;9.53;4.47;;;;;;;-148.15;100.00;61821.78;4978720;28;20560;-92
2023/08/21 03:27:03;;;;;;;8.30;3.90;;;;;;;-148.15;100.00;61821.78;4977500;28;20125;-90
2023/08/21 03:29:28;;;;;;;6.13;4.00;;;;;;;-148.15;100.00;61821.78;4992253;28;20053;-90
2023/08/21 03:31:57;;;;;;;6.17;3.73;;;;;;;-148.15;100.00;61821.78;4987917;28;20031;-91
2023/08/21 03:34:22;;;;;;;6.15;3.58;;;;;;;-148.15;100.00;61821.78;4991690;28;20489;-91
2023/08/21 03:36:48;;;;;;;7.60;3.90;;;;;;;-148.15;100.00;61821.78;4982919;28;20046;-91
2023/08/21 03:39:13;;;;;;;7.47;3.83;;;;;;;-148.15;100.00;61821.78;4977443;28;20018;-91
2023/08/21 03:41:38;;;;;;;11.18;4.30;;;;;;;-148.15;100.00;61821.78;4995814;28;20080;-91
2023/08/21 03:44:04;;;;;;;7.57;4.00;;;;;;;-148.15;100.00;61821.78;4997697;28;20041;-92
2023/08/21 03:46:29;;;;;;;7.43;4.43;;;;;;;-148.15;100.00;61821.78;4991775;28;20650;-90
2023/08/21 03:48:54;;;;;;;7.33;4.03;;;;;;;-148.15;100.00;61821.78;4991338;28;20038;-90
2023/08/21 03:51:20;;;;;;;9.80;3.87;;;;;;;-148.15;100.00;61821.78;4990787;28;20035;-90
2023/08/21 03:53:45;;;;;;;9.07;4.17;;;;;;;-148.15;100.00;61821.78;4990646;28;20034;-90
2023/08/21 03:56:10;;;;;;;9.50;4.40;;;;;;;-148.15;100.00;61821.78;4986688;28;20355;-89
2023/08/21 03:58:36;;;;;;;5.97;3.73;;;;;;;-148.15;100.00;61821.78;4984520;28;20045;-89
2023/08/21 04:01:01;;;;;;;9.97;4.33;;;;;;;-148.15;100.00;61821.78;4978676;28;20073;-89
2023/08/21 04:03:27;;;;;;;7.03;4.07;;;;;;;-148.15;100.00;61821.78;4989591;28;20064;-90
2023/08/21 04:05:56;;;;;;;10.13;3.97;;;;;;;-148.15;100.00;61821.78;4990965;28;20045;-90
2023/08/21 04:08:22;;;;;;;8.80;4.10;;;;;;;-148.15;100.00;61821.78;4990660;28;20033;-90
2023/08/21 04:10:48;;;;;;;8.02;3.92;;;;;;;-148.15;100.00;61821.78;4996262;28;20027;-90
2023/08/21 04:13:13;;;;;;;8.87;3.77;;;;;;;-148.15;100.00;61821.78;4983931;28;20043;-90
2023/08/21 04:15:38;;;;;;;6.57;3.93;;;;;;;-148.15;100.00;61821.78;4980744;28;20007;-89
2023/08/21 04:18:04;;;;;;;6.63;3.60;;;;;;;-148.15;100.00;61821.78;4990060;28;20408;-89
2023/08/21 04:20:30;;;;;;;13.38;4.30;;;;;;;-148.15;100.00;61821.78;4976272;28;20769;-91
2023/08/21 04:22:56;;;;;;;8.80;4.60;;;;;;;-148.15;100.00;61821.78;4958972;28;20030;-92
2023/08/21 04:25:21;;;;;;;8.40;4.30;;;;;;;-148.15;100.00;61821.78;4983708;28;20044;-91
2023/08/21 04:27:47;;;;;;;8.33;4.30;;;;;;;-148.15;100.00;61821.78;4989884;28;20117;-91
2023/08/21 04:30:12;;;;;;;7.88;4.30;;;;;;;-148.15;100.00;61821.78;4990651;28;20046;-91
2023/08/21 04:32:38;;;;;;;7.60;4.90;;;;;;;-148.15;100.00;61821.78;4990630;28;20023;-91
2023/08/21 04:35:05;;;;;;;8.57;4.23;;;;;;;-148.15;100.00;61821.78;4991357;28;20026;-91
2023/08/21 04:37:30;;;;;;;9.43;4.28;;;;;;;-148.15;100.00;61821.78;4989780;28;20470;-91
2023/08/21 04:39:56;;;;;;;9.98;4.32;;;;;;;-148.15;100.00;61821.78;4989150;28;20030;-92
2023/08/21 04:42:22;;;;;;;9.40;4.63;;;;;;;-148.15;100.00;61821.78;4990482;28;20022;-91
2023/08/21 04:44:48;;;;;;;9.73;4.65;;;;;;;-148.15;100.00;61821.78;4990739;28;20034;-91
2023/08/21 04:47:23;;;;;;;8.77;4.20;;;;;;;-148.15;100.00;61821.78;4989843;28;20731;-92
2023/08/21 04:49:49;;;;;;;7.30;4.47;;;;;;;-148.15;100.00;61821.78;4989718;28;20033;-91
2023/08/21 04:52:15;;;;;;;9.73;4.93;;;;;;;-148.15;100.00;61821.78;4989734;28;20026;-91
2023/08/21 04:54:40;;;;;;;12.03;4.57;;;;;;;-148.15;100.00;61821.78;4979582;28;20390;-93
2023/08/21 04:57:05;;;;;;;8.20;4.57;;;;;;;-148.15;100.00;61821.78;4995598;28;20061;-95
2023/08/21 04:59:30;;;;;;;12.33;4.50;;;;;;;-148.15;100.00;61821.78;4992651;28;20050;-95
2023/08/21 05:01:56;;;;;;;12.23;4.75;;;;;;;-148.15;100.00;61821.78;4994061;28;20540;-95
2023/08/21 05:04:21;;;;;;;8.90;4.63;;;;;;;-148.15;100.00;61821.78;4992032;28;20039;-96
2023/08/21 05:06:46;;;;;;;8.63;4.30;;;;;;;-148.15;100.00;61821.78;4988622;28;20026;-94
2023/08/21 05:09:12;;;;;;;9.07;4.40;;;;;;;-148.15;100.00;61821.78;4985534;28;20038;-95
2023/08/21 05:11:38;;;;;;;8.07;4.70;;;;;;;-148.15;100.00;61821.78;4999565;28;20499;-95
2023/08/21 05:14:03;;;;;;;11.00;4.68;;;;;;;-148.15;100.00;61821.78;4983930;28;20035;-95
2023/08/21 05:16:29;;;;;;;9.70;4.63;;;;;;;-148.15;100.00;61821.78;5002931;28;20033;-92
2023/08/21 05:18:54;;;;;;;10.23;4.25;;;;;;;-148.15;100.00;61821.78;5010685;28;20034;-91
2023/08/21 05:21:20;;;;;;;13.37;5.10;;;;;;;-148.15;100.00;61821.78;5004406;28;20034;-89
2023/08/21 05:23:45;;;;;;;9.70;5.20;;;;;;;-148.15;100.00;61821.78;4997335;28;20500;-91
2023/08/21 05:26:10;;;;;;;12.53;5.03;;;;;;;-148.15;100.00;61821.78;4996891;28;20046;-92
2023/08/21 05:28:36;;;;;;;12.97;5.47;;;;;;;-148.15;100.00;61821.78;5012881;28;20029;-91
2023/08/21 05:31:01;;;;;;;12.97;5.57;;;;;;;-148.15;100.00;61821.78;5000589;28;20042;-92
2023/08/21 05:33:26;;;;;;;10.63;5.30;;;;;;;-148.15;100.00;61821.78;4983802;28;20033;-91
2023/08/21 05:35:52;;;;;;;17.43;5.57;;;;;;;-148.15;100.00;61821.78;4991684;28;20441;-92
2023/08/21 05:38:17;;;;;;;7.13;4.90;;;;;;;-148.15;100.00;61821.78;4997272;28;20057;-91
2023/08/21 05:40:42;;;;;;;9.53;5.90;;;;;;;-148.15;100.00;61821.78;5007238;28;20034;-92
2023/08/21 05:43:08;;;;;;;12.17;5.30;;;;;;;-148.15;100.00;61821.78;5011005;28;20228;-92
2023/08/21 05:45:33;;;;;;;13.15;5.45;;;;;;;-148.15;100.00;61821.78;5014432;28;20031;-93
2023/08/21 05:47:59;;;;;;;8.50;4.97;;;;;;;-148.15;100.00;61821.78;5016148;28;20053;-92
2023/08/21 05:50:24;;;;;;;12.87;5.63;;;;;;;-148.15;100.00;61821.78;5011788;28;20037;-93
2023/08/21 05:52:49;;;;;;;13.93;5.32;;;;;;;-148.15;100.00;61821.78;5008023;28;20027;-94
2023/08/21 05:55:15;;;;;;;10.83;5.70;;;;;;;-148.15;100.00;61821.78;4988371;28;20034;-91
2023/08/21 05:57:40;;;;;;;11.20;5.67;;;;;;;-148.15;100.00;61821.78;5012010;28;20006;-93
2023/08/21 06:00:09;;;;;;;13.50;6.00;;;;;;;-148.15;100.00;61821.78;5010598;28;20034;-92
2023/08/21 06:02:34;;;;;;;10.85;7.03;;;;;;;-148.15;100.00;61821.78;5005621;28;20026;-90
2023/08/21 06:05:00;;;;;;;11.65;6.78;;;;;;;-148.15;100.00;61821.78;5002506;28;20046;-91
2023/08/21 06:07:25;;;;;;;12.40;7.47;;;;;;;-148.15;100.00;61821.78;4987116;28;20022;-91
2023/08/21 06:09:50;;;;;;;14.00;7.80;;;;;;;-148.15;100.00;61821.78;4984935;28;20050;-92
2023/08/21 06:12:16;;;;;;;15.77;7.60;;;;;;;-148.15;100.00;61821.78;5015165;28;20022;-95
2023/08/21 06:14:41;;;;;;;12.53;7.63;;;;;;;-148.15;100.00;61821.78;5154017;23;20065;-94
2023/08/21 06:17:06;;;;;;;12.07;8.07;;;;;;;-148.15;100.00;61821.78;5008387;28;20281;-94
2023/08/21 06:19:32;;;;;;;13.20;7.90;;;;;;;-148.15;100.00;61821.78;4986961;28;20037;-93
2023/08/21 06:21:58;;;;;;;13.30;7.80;;;;;;;-148.15;100.00;61821.78;5000661;28;20026;-92
2023/08/21 06:24:23;;;;;;;16.27;8.18;;;;;;;-148.15;100.00;61821.78;5007180;28;20067;-92
2023/08/21 06:26:49;;;;;;;11.83;7.77;;;;;;;-148.15;100.00;61821.78;4993371;28;20031;-93
2023/08/21 06:29:14;;;;;;;12.23;7.28;;;;;;;-148.15;100.00;61821.78;4994022;28;20027;-94
2023/08/21 06:31:40;;;;;;;15.03;7.40;;;;;;;-148.15;100.00;61821.78;5008984;28;20568;-92
2023/08/21 06:34:05;;;;;;;12.47;8.20;;;;;;;-148.15;100.00;61821.78;5005500;28;20023;-94
2023/08/21 06:36:31;;;;;;;12.30;7.78;;;;;;;-148.15;100.00;61821.78;4992295;28;20027;-91
2023/08/21 06:38:56;;;;;;;14.77;7.63;;;;;;;-148.15;100.00;61821.78;4986112;28;20050;-91
2023/08/21 06:41:22;;;;;;;15.90;7.90;;;;;;;-148.15;100.00;61821.78;4981501;28;20034;-89
2023/08/21 06:43:47;;;;;;;16.05;9.32;;;;;;;-148.15;100.00;61821.78;4974292;28;20034;-89
2023/08/21 06:46:13;;;;;;;12.17;7.87;;;;;;;-148.15;100.00;61821.78;4975028;28;20057;-90
2023/08/21 06:48:40;;;;;;;12.43;8.50;;;;;;;-148.15;100.00;61821.78;4981395;28;20395;-89
2023/08/21 06:51:06;;;;;;;14.50;8.68;;;;;;;-148.15;100.00;61821.78;4976098;28;20027;-89
2023/08/21 06:53:31;;;;;;;18.10;8.48;;;;;;;-148.15;100.00;61821.78;4984975;28;20062;-88
2023/08/21 06:55:57;;;;;;;19.10;9.00;;;;;;;-148.15;100.00;61821.78;4989905;28;20034;-91
2023/08/21 06:58:22;;;;;;;16.97;9.40;;;;;;;-148.15;100.00;61821.78;4978986;28;20077;-89
2023/08/21 07:00:48;;;;;;;12.23;9.17;;;;;;;-148.15;100.00;61821.78;4981457;28;20679;-87
2023/08/21 07:03:13;;;;;;;11.63;7.83;;;;;;;-148.15;100.00;61821.78;4972991;28;20825;-87
2023/08/21 07:05:38;;;;;;;14.90;6.80;;;;;;;-148.15;100.00;61821.78;4956239;28;20018;-87
2023/08/21 07:08:04;;;;;;;13.80;6.40;;;;;;;-148.15;100.00;61821.78;4982086;28;20470;-89
2023/08/21 07:10:29;;;;;;;15.40;6.10;;;;;;;-148.15;100.00;61821.78;4987220;28;20030;-88
2023/08/21 07:12:55;;;;;;;9.32;5.45;;;;;;;-148.15;100.00;61821.78;4954238;28;20026;-89
2023/08/21 07:15:20;;;;;;;13.23;5.07;;;;;;;-148.15;100.00;61821.78;4985693;28;20033;-88
2023/08/21 07:17:45;;;;;;;11.10;5.10;;;;;;;-148.15;100.00;61821.78;4973492;28;20463;-90
2023/08/21 07:20:11;;;;;;;12.07;5.10;;;;;;;-148.15;100.00;61821.78;4978793;28;20065;-88
2023/08/21 07:22:37;;;;;;;10.93;5.33;;;;;;;-148.15;100.00;61821.78;4972122;28;20023;-88
2023/08/21 07:25:04;;;;;;;12.25;5.38;;;;;;;-148.15;100.00;61821.78;4974064;28;20037;-89
2023/08/21 07:27:30;;;;;;;9.23;5.07;;;;;;;-148.15;100.00;61821.78;4971907;28;20022;-89
2023/08/21 07:29:56;;;;;;;9.43;4.90;;;;;;;-148.15;100.00;61821.78;4990312;28;20801;-89
2023/08/21 07:32:21;;;;;;;10.82;5.15;;;;;;;-148.15;100.00;61821.78;4981349;28;20066;-89
2023/08/21 07:34:46;;;;;;;8.33;4.90;;;;;;;-148.15;100.00;61821.78;4973610;28;20387;-89
2023/08/21 07:37:12;;;;;;;15.27;4.90;;;;;;;-148.15;100.00;61821.78;4972623;28;20054;-89
2023/08/21 07:39:37;;;;;;;10.40;4.80;;;;;;;-148.15;100.00;61821.78;4976506;28;20066;-89
2023/08/21 07:42:03;;;;;;;9.53;5.10;;;;;;;-148.15;100.00;61821.78;4988844;28;20030;-89
2023/08/21 07:44:28;;;;;;;9.70;5.00;;;;;;;-148.15;100.00;61821.78;4974292;28;20286;-90
2023/08/21 07:46:53;;;;;;;9.37;5.07;;;;;;;-148.15;100.00;61821.78;4974256;28;20147;-92
2023/08/21 07:49:18;;;;;;;7.20;4.40;;;;;;;-148.15;100.00;61821.78;4974402;28;20027;-93
2023/08/21 07:51:44;;;;;;;7.37;3.90;;;;;;;-148.15;100.00;61821.78;4996267;28;20093;-90
2023/08/21 07:54:09;;;;;;;12.82;4.38;;;;;;;-148.15;100.00;61821.78;4986913;28;20133;-92
2023/08/21 07:56:35;;;;;;;10.83;4.63;;;;;;;-148.15;100.00;61821.78;4985350;28;20030;-93
2023/08/21 07:59:02;;;;;;;11.23;4.20;;;;;;;-148.15;100.00;61821.78;4968405;28;20539;-88
2023/08/21 08:01:28;;;;;;;8.23;3.80;;;;;;;-148.15;100.00;61821.78;4988125;28;20070;-90
2023/08/21 08:03:53;;;;;;;10.23;4.90;;;;;;;-148.15;100.00;61821.78;4984077;28;20309;-90
2023/08/21 08:06:18;;;;;;;12.47;4.73;;;;;;;-148.15;100.00;61821.78;4978301;28;20047;-88
2023/08/21 08:08:44;;;;;;;12.10;4.47;;;;;;;-148.15;100.00;61821.78;4980198;28;20027;-89
2023/08/21 08:11:09;;;;;;;11.27;5.00;;;;;;;-148.15;100.00;61821.78;4980863;28;20041;-89
2023/08/21 08:13:35;;;;;;;12.27;3.90;;;;;;;-148.15;100.00;61821.78;4980649;28;20034;-89
2023/08/21 08:16:01;;;;;;;8.33;4.30;;;;;;;-148.15;100.00;61821.78;4981429;28;20077;-89
2023/08/21 08:18:26;;;;;;;12.77;4.65;;;;;;;-148.15;100.00;61821.78;4989244;28;20426;-89
2023/08/21 08:20:52;;;;;;;10.50;4.90;;;;;;;-148.15;100.00;61821.78;4984575;28;20442;-92
2023/08/21 08:23:19;;;;;;;9.45;4.65;;;;;;;-148.15;100.00;61821.78;4969732;28;20510;-94
2023/08/21 08:25:47;;;;;;;8.25;4.13;;;;;;;-148.15;100.00;61821.78;5001710;28;20033;-94
2023/08/21 08:28:20;;;;;;;11.68;4.45;;;;;;;-148.15;100.00;61821.78;5187857;23;20013;-96
2023/08/21 08:30:46;;;;;;;13.00;4.77;;;;;;;-148.15;100.00;61821.78;5015475;28;20553;-91
2023/08/21 08:33:11;;;;;;;10.27;5.03;;;;;;;-148.15;100.00;61821.78;5011049;28;20285;-93
2023/08/21 08:35:36;;;;;;;8.43;4.10;;;;;;;-148.15;100.00;61821.78;5007903;28;20030;-92
2023/08/21 08:38:02;;;;;;;11.57;4.47;;;;;;;-148.15;100.00;61821.78;5003396;28;20022;-92
2023/08/21 08:40:27;;;;;;;12.80;4.17;;;;;;;-148.15;100.00;61821.78;4980899;28;20026;-93
2023/08/21 08:42:54;;;;;;;8.80;4.05;;;;;;;-148.15;100.00;61821.78;4999423;28;20034;-93
2023/08/21 08:45:32;;;;;;;8.80;3.40;;;;;;;-148.15;100.00;61821.78;4997157;28;20058;-92
2023/08/21 08:48:00;;;;;;;12.45;3.45;;;;;;;-148.15;100.00;61821.78;4998041;28;20041;-91
2023/08/21 08:50:29;;;;;;;14.05;4.85;;;;;;;-148.15;100.00;61821.78;4996646;28;20019;-96
2023/08/21 09:13:31;;;;;;;8.32;2.33;;;;;;;-148.15;100.00;61821.78;5200739;23;20069;-95
2023/08/21 09:15:56;;;;;;;8.88;2.10;;;;;;;-148.15;100.00;61821.78;4968877;28;20452;-93
2023/08/21 09:18:24;;;;;;;6.37;2.40;;;;;;;-148.15;100.00;61821.78;4957435;29;20043;-96
2023/08/21 09:20:49;;;;;;;6.97;2.38;;;;;;;-148.15;100.00;61821.78;4992338;28;20086;-96
2023/08/21 09:23:52;;;;;;;4.90;1.90;;;;;;;-148.15;100.00;61821.78;5270362;23;20010;-95
2023/08/21 09:31:32;;;;;;;7.65;2.55;;;;;;;-148.15;100.00;61821.78;5302040;23;20081;-96
2023/08/21 09:34:07;;;;;;;7.45;2.28;;;;;;;-148.15;100.00;61821.78;5309993;23;20050;-95
2023/08/21 09:36:33;;;;;;;4.85;2.58;;;;;;;-148.15;100.00;61821.78;5261438;23;20139;-95
2023/08/21 09:39:00;;;;;;;8.37;2.90;;;;;;;-148.15;100.00;61821.78;5004111;28;20034;-96
2023/08/21 09:41:28;;;;;;;8.57;3.63;;;;;;;-148.15;100.00;61821.78;5014908;28;20398;-96
2023/08/21 09:44:00;;;;;;;10.50;4.00;;;;;;;-148.15;100.00;61821.78;5017717;28;20429;-96
2023/08/21 09:46:50;;;;;;;9.75;3.85;;;;;;;-148.15;100.00;61821.78;5020181;28;20054;-96
2023/08/21 09:49:17;;;;;;;13.10;4.10;;;;;;;-148.15;100.00;61821.78;5017042;28;20022;-95
2023/08/21 09:51:44;;;;;;;8.25;3.58;;;;;;;-148.15;100.00;61821.78;5015511;28;20030;-96
2023/08/21 09:54:25;;;;;;;7.97;3.25;;;;;;;-148.15;100.00;61821.78;5009066;28;20077;-96
2023/08/21 09:56:51;;;;;;;11.95;3.90;;;;;;;-148.15;100.00;61821.78;4995037;28;20050;-96
2023/08/21 10:02:09;;;;;;;7.35;2.55;;;;;;;-148.15;100.00;61821.78;5014470;28;20098;-96
2023/08/21 10:04:38;;;;;;;6.80;2.23;;;;;;;-148.15;100.00;61821.78;5020398;28;20030;-96
2023/08/21 10:07:07;;;;;;;8.73;2.90;;;;;;;-148.15;100.00;61821.78;5003110;28;20253;-96
2023/08/21 10:09:34;;;;;;;8.38;2.40;;;;;;;-148.15;100.00;61821.78;5013570;28;20022;-96
2023/08/21 10:12:01;;;;;;;9.18;2.60;;;;;;;-148.15;100.00;61821.78;5013635;28;20030;-96
2023/08/21 10:14:27;;;;;;;6.63;2.22;;;;;;;-148.15;100.00;61821.78;5014799;28;20030;-96
2023/08/21 10:16:56;;;;;;;7.05;1.83;;;;;;;-148.15;100.00;61821.78;4975847;28;20038;-96
2023/08/21 10:19:31;;;;;;;8.35;2.50;;;;;;;-148.15;100.00;61821.78;4997872;28;20082;-96
2023/08/21 10:21:59;;;;;;;3.93;1.67;;;;;;;-148.15;100.00;61821.78;4980563;28;20022;-96
2023/08/21 10:24:36;;;;;;;8.33;2.20;;;;;;;-148.15;100.00;61821.78;5004145;28;20349;-95
2023/08/21 10:27:02;;;;;;;5.28;1.90;;;;;;;-148.15;100.00;61821.78;5006494;28;20534;-96
2023/08/21 10:29:28;;;;;;;4.78;1.98;;;;;;;-148.15;100.00;61821.78;5006733;28;20030;-96
2023/08/21 10:32:04;;;;;;;8.18;2.60;;;;;;;-148.15;100.00;61821.78;5001995;28;20061;-95
2023/08/21 10:34:35;;;;;;;5.17;2.20;;;;;;;-148.15;100.00;61821.78;4989595;28;20509;-96
2023/08/21 10:37:11;;;;;;;7.60;2.20;;;;;;;-148.15;100.00;61821.78;4990279;28;20293;-95
2023/08/21 10:39:39;;;;;;;11.20;2.30;;;;;;;-148.15;100.00;61821.78;4985709;28;20030;-96
2023/08/21 10:42:09;;;;;;;5.88;2.50;;;;;;;-148.15;100.00;61821.78;4980819;28;20089;-96
2023/08/21 10:44:51;;;;;;;6.47;2.25;;;;;;;-148.15;100.00;61821.78;4999781;28;20019;-96
2023/08/21 10:47:25;;;;;;;5.63;2.00;;;;;;;-148.15;100.00;61821.78;5008811;28;20042;-94
2023/08/21 10:49:53;;;;;;;6.22;1.85;;;;;;;-148.15;100.00;61821.78;4997666;28;20034;-96
2023/08/21 10:52:22;;;;;;;6.93;1.73;;;;;;;-148.15;100.00;61821.78;5016719;28;20023;-96
2023/08/21 10:54:50;;;;;;;3.40;1.70;;;;;;;-148.15;100.00;61821.78;4984315;28;20292;-94
2023/08/21 10:57:16;;;;;;;3.05;1.42;;;;;;;-148.15;100.00;61821.78;4999220;28;20117;-95
2023/08/21 10:59:54;;;;;;;11.02;2.40;;;;;;;-148.15;100.00;61821.78;5001192;28;20077;-95
2023/08/21 11:02:22;;;;;;;4.55;1.75;;;;;;;-148.15;100.00;61821.78;5008433;28;20026;-95
2023/08/21 11:04:49;;;;;;;6.07;1.80;;;;;;;-148.15;100.00;61821.78;5006870;28;20030;-94
2023/08/21 11:07:15;;;;;;;6.43;1.87;;;;;;;-148.15;100.00;61821.78;5006778;28;20300;-95
2023/08/21 11:09:40;;;;;;;3.92;1.85;;;;;;;-148.15;100.00;61821.78;5005581;28;20030;-94
2023/08/21 11:12:10;;;;;;;6.80;2.07;;;;;;;-148.15;100.00;61821.78;4985601;28;20094;-95
2023/08/21 11:14:36;;;;;;;6.15;1.98;;;;;;;-148.15;100.00;61821.78;4988951;28;20023;-96
2023/08/21 11:17:02;;;;;;;6.07;2.33;;;;;;;-148.15;100.00;61821.78;4984018;28;20030;-96
2023/08/21 11:19:30;;;;;;;5.93;2.13;;;;;;;-148.15;100.00;61821.78;4995588;28;20022;-96
2023/08/21 11:21:56;;;;;;;5.55;2.10;;;;;;;-148.15;100.00;61821.78;4981986;28;20030;-95
2023/08/21 11:24:22;;;;;;;9.45;2.17;;;;;;;-148.15;100.00;61821.78;4999645;28;20035;-94
2023/08/21 11:26:48;;;;;;;10.10;2.70;;;;;;;-148.15;100.00;61821.78;4983022;28;20033;-93
2023/08/21 11:29:13;;;;;;;5.35;2.20;;;;;;;-148.15;100.00;61821.78;4984970;28;20034;-94
2023/08/21 11:31:38;;;;;;;7.43;2.03;;;;;;;-148.15;100.00;61821.78;5009795;28;20026;-95
2023/08/21 11:34:04;;;;;;;6.27;2.30;;;;;;;-148.15;100.00;61821.78;5002807;28;20022;-96